sensor_id;sensor_type;location;lat;lon;timestamp;pressure;altitude;pressure_sealevel;temperature
64488;BMP280;50864;45.050;39.014;2022-10-26T00:01:17;101671.00;;;11.56
64488;BMP280;50864;45.050;39.014;2022-10-26T00:03:44;101660.28;;;11.51
64488;BMP280;50864;45.050;39.014;2022-10-26T00:06:13;101672.84;;;11.45
64488;BMP280;50864;45.050;39.014;2022-10-26T00:08:39;101671.50;;;11.42
64488;BMP280;50864;45.050;39.014;2022-10-26T00:11:06;101675.25;;;11.36
64488;BMP280;50864;45.050;39.014;2022-10-26T00:13:33;101679.78;;;11.31
64488;BMP280;50864;45.050;39.014;2022-10-26T00:16:00;101679.78;;;11.26
64488;BMP280;50864;45.050;39.014;2022-10-26T00:18:26;101674.13;;;11.22
64488;BMP280;50864;45.050;39.014;2022-10-26T00:20:52;101679.47;;;11.17
64488;BMP280;50864;45.050;39.014;2022-10-26T00:23:21;101673.56;;;11.10
64488;BMP280;50864;45.050;39.014;2022-10-26T00:25:55;101669.00;;;11.05
64488;BMP280;50864;45.050;39.014;2022-10-26T00:28:21;101665.25;;;11.01
64488;BMP280;50864;45.050;39.014;2022-10-26T00:30:48;101663.38;;;10.97
64488;BMP280;50864;45.050;39.014;2022-10-26T00:33:14;101672.97;;;10.98
64488;BMP280;50864;45.050;39.014;2022-10-26T00:35:40;101671.91;;;10.99
64488;BMP280;50864;45.050;39.014;2022-10-26T00:38:06;101675.69;;;11.03
64488;BMP280;50864;45.050;39.014;2022-10-26T00:40:34;101664.72;;;11.04
64488;BMP280;50864;45.050;39.014;2022-10-26T00:43:00;101671.69;;;11.05
64488;BMP280;50864;45.050;39.014;2022-10-26T00:45:28;101669.53;;;11.07
64488;BMP280;50864;45.050;39.014;2022-10-26T00:48:02;101668.22;;;11.10
64488;BMP280;50864;45.050;39.014;2022-10-26T00:50:33;101656.72;;;11.15
64488;BMP280;50864;45.050;39.014;2022-10-26T00:53:02;101670.13;;;11.20
64488;BMP280;50864;45.050;39.014;2022-10-26T00:55:46;101660.47;;;11.24
64488;BMP280;50864;45.050;39.014;2022-10-26T00:58:13;101666.94;;;11.28
64488;BMP280;50864;45.050;39.014;2022-10-26T01:00:41;101657.28;;;11.32
64488;BMP280;50864;45.050;39.014;2022-10-26T01:03:08;101665.88;;;11.34
64488;BMP280;50864;45.050;39.014;2022-10-26T01:05:37;101650.06;;;11.37
64488;BMP280;50864;45.050;39.014;2022-10-26T01:08:06;101647.94;;;11.39
64488;BMP280;50864;45.050;39.014;2022-10-26T01:10:33;101654.91;;;11.40
64488;BMP280;50864;45.050;39.014;2022-10-26T01:13:00;101642.56;;;11.39
64488;BMP280;50864;45.050;39.014;2022-10-26T01:18:36;101648.72;;;11.35
64488;BMP280;50864;45.050;39.014;2022-10-26T01:32:09;101619.72;;;11.17
64488;BMP280;50864;45.050;39.014;2022-10-26T01:38:08;101613.59;;;11.11
64488;BMP280;50864;45.050;39.014;2022-10-26T01:40:39;101615.44;;;11.11
64488;BMP280;50864;45.050;39.014;2022-10-26T01:43:08;101617.06;;;11.12
64488;BMP280;50864;45.050;39.014;2022-10-26T01:45:39;101605.81;;;11.15
64488;BMP280;50864;45.050;39.014;2022-10-26T01:48:08;101612.75;;;11.16
64488;BMP280;50864;45.050;39.014;2022-10-26T01:50:36;101617.03;;;11.17
64488;BMP280;50864;45.050;39.014;2022-10-26T01:53:03;101619.47;;;11.18
64488;BMP280;50864;45.050;39.014;2022-10-26T01:55:52;101618.91;;;11.16
64488;BMP280;50864;45.050;39.014;2022-10-26T02:01:08;101615.19;;;11.12
64488;BMP280;50864;45.050;39.014;2022-10-26T02:03:49;101621.06;;;11.09
64488;BMP280;50864;45.050;39.014;2022-10-26T02:06:39;101612.75;;;11.05
64488;BMP280;50864;45.050;39.014;2022-10-26T02:12:07;101616.47;;;10.99
64488;BMP280;50864;45.050;39.014;2022-10-26T02:15:14;101617.28;;;11.00
64488;BMP280;50864;45.050;39.014;2022-10-26T02:20:21;101632.28;;;10.96
64488;BMP280;50864;45.050;39.014;2022-10-26T02:22:50;101626.37;;;10.94
64488;BMP280;50864;45.050;39.014;2022-10-26T02:25:29;101629.06;;;10.94
64488;BMP280;50864;45.050;39.014;2022-10-26T02:28:01;101631.72;;;10.94
64488;BMP280;50864;45.050;39.014;2022-10-26T02:30:29;101634.41;;;10.94
64488;BMP280;50864;45.050;39.014;2022-10-26T02:32:56;101636.53;;;10.87
64488;BMP280;50864;45.050;39.014;2022-10-26T02:35:29;101634.38;;;10.84
64488;BMP280;50864;45.050;39.014;2022-10-26T02:37:59;101623.66;;;10.84
64488;BMP280;50864;45.050;39.014;2022-10-26T02:40:27;101623.13;;;10.82
64488;BMP280;50864;45.050;39.014;2022-10-26T02:42:57;101627.13;;;10.79
64488;BMP280;50864;45.050;39.014;2022-10-26T02:45:29;101631.09;;;10.77
64488;BMP280;50864;45.050;39.014;2022-10-26T02:47:56;101618.81;;;10.76
64488;BMP280;50864;45.050;39.014;2022-10-26T02:50:27;101627.91;;;10.75
64488;BMP280;50864;45.050;39.014;2022-10-26T02:53:13;101631.13;;;10.72
64488;BMP280;50864;45.050;39.014;2022-10-26T02:55:46;101614.50;;;10.70
64488;BMP280;50864;45.050;39.014;2022-10-26T02:58:18;101609.94;;;10.70
64488;BMP280;50864;45.050;39.014;2022-10-26T03:00:46;101610.47;;;10.67
64488;BMP280;50864;45.050;39.014;2022-10-26T03:03:14;101600.28;;;10.64
64488;BMP280;50864;45.050;39.014;2022-10-26T03:05:41;101600.28;;;10.64
64488;BMP280;50864;45.050;39.014;2022-10-26T03:08:08;101598.12;;;10.61
64488;BMP280;50864;45.050;39.014;2022-10-26T03:10:44;101601.88;;;10.60
64488;BMP280;50864;45.050;39.014;2022-10-26T03:13:12;101597.06;;;10.57
64488;BMP280;50864;45.050;39.014;2022-10-26T03:15:38;101599.44;;;10.53
64488;BMP280;50864;45.050;39.014;2022-10-26T03:18:05;101597.56;;;10.49
64488;BMP280;50864;45.050;39.014;2022-10-26T03:20:31;101590.84;;;10.46
64488;BMP280;50864;45.050;39.014;2022-10-26T03:22:57;101596.69;;;10.43
64488;BMP280;50864;45.050;39.014;2022-10-26T03:25:24;101588.16;;;10.41
64488;BMP280;50864;45.050;39.014;2022-10-26T03:28:00;101576.06;;;10.39
64488;BMP280;50864;45.050;39.014;2022-10-26T03:30:28;101582.75;;;10.36
64488;BMP280;50864;45.050;39.014;2022-10-26T03:32:55;101580.88;;;10.32
64488;BMP280;50864;45.050;39.014;2022-10-26T03:35:21;101593.69;;;10.30
64488;BMP280;50864;45.050;39.014;2022-10-26T03:37:48;101590.47;;;10.28
64488;BMP280;50864;45.050;39.014;2022-10-26T03:40:14;101601.97;;;10.23
64488;BMP280;50864;45.050;39.014;2022-10-26T03:42:40;101602.22;;;10.22
64488;BMP280;50864;45.050;39.014;2022-10-26T03:45:07;101597.13;;;10.20
64488;BMP280;50864;45.050;39.014;2022-10-26T03:47:33;101591.78;;;10.20
64488;BMP280;50864;45.050;39.014;2022-10-26T03:49:59;101588.31;;;10.25
64488;BMP280;50864;45.050;39.014;2022-10-26T03:52:26;101585.91;;;10.28
64488;BMP280;50864;45.050;39.014;2022-10-26T03:54:51;101586.47;;;10.30
64488;BMP280;50864;45.050;39.014;2022-10-26T03:57:17;101584.34;;;10.32
64488;BMP280;50864;45.050;39.014;2022-10-26T03:59:43;101587.56;;;10.34
64488;BMP280;50864;45.050;39.014;2022-10-26T04:02:09;101587.84;;;10.38
64488;BMP280;50864;45.050;39.014;2022-10-26T04:04:37;101580.91;;;10.42
64488;BMP280;50864;45.050;39.014;2022-10-26T04:07:02;101582.25;;;10.44
64488;BMP280;50864;45.050;39.014;2022-10-26T04:09:28;101582.31;;;10.49
64488;BMP280;50864;45.050;39.014;2022-10-26T04:11:54;101570.78;;;10.54
64488;BMP280;50864;45.050;39.014;2022-10-26T04:14:20;101578.03;;;10.58
64488;BMP280;50864;45.050;39.014;2022-10-26T04:16:46;101580.22;;;10.61
64488;BMP280;50864;45.050;39.014;2022-10-26T04:19:12;101587.16;;;10.68
64488;BMP280;50864;45.050;39.014;2022-10-26T04:21:38;101585.91;;;10.80
64488;BMP280;50864;45.050;39.014;2022-10-26T04:24:04;101587.00;;;10.94
64488;BMP280;50864;45.050;39.014;2022-10-26T04:26:31;101580.88;;;11.09
64488;BMP280;50864;45.050;39.014;2022-10-26T04:28:57;101588.41;;;11.22
64488;BMP280;50864;45.050;39.014;2022-10-26T04:31:22;101590.59;;;11.40
64488;BMP280;50864;45.050;39.014;2022-10-26T04:33:49;101591.09;;;11.58
64488;BMP280;50864;45.050;39.014;2022-10-26T04:36:15;101591.12;;;11.73
64488;BMP280;50864;45.050;39.014;2022-10-26T04:38:41;101591.38;;;11.76
64488;BMP280;50864;45.050;39.014;2022-10-26T04:41:09;101580.38;;;11.78
64488;BMP280;50864;45.050;39.014;2022-10-26T04:43:35;101581.72;;;11.75
64488;BMP280;50864;45.050;39.014;2022-10-26T04:46:01;101582.25;;;11.72
64488;BMP280;50864;45.050;39.014;2022-10-26T04:48:27;101576.59;;;11.69
64488;BMP280;50864;45.050;39.014;2022-10-26T04:50:56;101572.84;;;11.70
64488;BMP280;50864;45.050;39.014;2022-10-26T04:53:22;101578.22;;;11.70
64488;BMP280;50864;45.050;39.014;2022-10-26T04:55:49;101578.22;;;11.70
64488;BMP280;50864;45.050;39.014;2022-10-26T04:58:20;101576.34;;;11.75
64488;BMP280;50864;45.050;39.014;2022-10-26T05:00:46;101569.41;;;11.79
64488;BMP280;50864;45.050;39.014;2022-10-26T05:03:12;101576.84;;;11.82
64488;BMP280;50864;45.050;39.014;2022-10-26T05:05:38;101580.91;;;11.85
64488;BMP280;50864;45.050;39.014;2022-10-26T05:08:04;101580.09;;;11.89
64488;BMP280;50864;45.050;39.014;2022-10-26T05:10:31;101593.75;;;11.93
64488;BMP280;50864;45.050;39.014;2022-10-26T05:12:58;101599.91;;;11.99
64488;BMP280;50864;45.050;39.014;2022-10-26T05:15:25;101600.97;;;12.08
64488;BMP280;50864;45.050;39.014;2022-10-26T05:17:56;101611.94;;;12.21
64488;BMP280;50864;45.050;39.014;2022-10-26T05:20:22;101608.41;;;12.36
64488;BMP280;50864;45.050;39.014;2022-10-26T05:22:55;101604.88;;;12.51
64488;BMP280;50864;45.050;39.014;2022-10-26T05:25:21;101606.94;;;12.69
64488;BMP280;50864;45.050;39.014;2022-10-26T05:27:47;101608.97;;;12.87
64488;BMP280;50864;45.050;39.014;2022-10-26T05:30:15;101613.75;;;13.05
64488;BMP280;50864;45.050;39.014;2022-10-26T05:32:41;101608.00;;;13.17
64488;BMP280;50864;45.050;39.014;2022-10-26T05:35:07;101603.91;;;13.24
64488;BMP280;50864;45.050;39.014;2022-10-26T05:37:34;101597.69;;;13.29
64488;BMP280;50864;45.050;39.014;2022-10-26T05:39:59;101609.25;;;13.29
64488;BMP280;50864;45.050;39.014;2022-10-26T05:42:25;101613.50;;;13.36
64488;BMP280;50864;45.050;39.014;2022-10-26T05:44:51;101619.13;;;13.39
64488;BMP280;50864;45.050;39.014;2022-10-26T05:47:17;101617.16;;;13.50
64488;BMP280;50864;45.050;39.014;2022-10-26T05:49:43;101611.38;;;13.66
64488;BMP280;50864;45.050;39.014;2022-10-26T05:52:09;101596.63;;;13.88
64488;BMP280;50864;45.050;39.014;2022-10-26T05:54:38;101592.63;;;14.09
64488;BMP280;50864;45.050;39.014;2022-10-26T05:57:04;101606.75;;;14.25
64488;BMP280;50864;45.050;39.014;2022-10-26T05:59:30;101615.12;;;14.42
64488;BMP280;50864;45.050;39.014;2022-10-26T06:04:43;101607.72;;;14.90
64488;BMP280;50864;45.050;39.014;2022-10-26T06:07:17;101593.78;;;15.20
64488;BMP280;50864;45.050;39.014;2022-10-26T06:09:45;101610.75;;;15.53
64488;BMP280;50864;45.050;39.014;2022-10-26T06:12:12;101600.81;;;15.81
64488;BMP280;50864;45.050;39.014;2022-10-26T06:14:39;101614.62;;;16.06
64488;BMP280;50864;45.050;39.014;2022-10-26T06:17:17;101609.16;;;16.34
64488;BMP280;50864;45.050;39.014;2022-10-26T06:23:01;101608.78;;;16.76
64488;BMP280;50864;45.050;39.014;2022-10-26T06:25:37;101593.09;;;16.65
64488;BMP280;50864;45.050;39.014;2022-10-26T06:30:39;101580.19;;;16.26
64488;BMP280;50864;45.050;39.014;2022-10-26T06:33:08;101591.78;;;16.12
64488;BMP280;50864;45.050;39.014;2022-10-26T06:38:14;101569.37;;;16.12
64488;BMP280;50864;45.050;39.014;2022-10-26T06:40:42;101566.50;;;16.08
64488;BMP280;50864;45.050;39.014;2022-10-26T06:43:23;101570.62;;;16.06
64488;BMP280;50864;45.050;39.014;2022-10-26T06:48:34;101566.63;;;16.03
64488;BMP280;50864;45.050;39.014;2022-10-26T06:51:04;101556.94;;;15.89
64488;BMP280;50864;45.050;39.014;2022-10-26T06:53:33;101552.34;;;15.89
64488;BMP280;50864;45.050;39.014;2022-10-26T06:56:01;101549.41;;;15.99
64488;BMP280;50864;45.050;39.014;2022-10-26T06:58:29;101548.69;;;16.07
64488;BMP280;50864;45.050;39.014;2022-10-26T07:00:57;101544.88;;;16.08
64488;BMP280;50864;45.050;39.014;2022-10-26T07:03:24;101547.09;;;16.06
64488;BMP280;50864;45.050;39.014;2022-10-26T07:05:50;101550.41;;;16.03
64488;BMP280;50864;45.050;39.014;2022-10-26T07:08:16;101541.22;;;16.04
64488;BMP280;50864;45.050;39.014;2022-10-26T07:10:42;101543.69;;;16.15
64488;BMP280;50864;45.050;39.014;2022-10-26T07:13:09;101550.66;;;16.29
64488;BMP280;50864;45.050;39.014;2022-10-26T07:15:36;101549.28;;;16.32
64488;BMP280;50864;45.050;39.014;2022-10-26T07:18:04;101546.16;;;16.25
64488;BMP280;50864;45.050;39.014;2022-10-26T07:20:31;101551.28;;;16.26
64488;BMP280;50864;45.050;39.014;2022-10-26T07:23:00;101544.16;;;16.30
64488;BMP280;50864;45.050;39.014;2022-10-26T07:25:26;101544.72;;;16.41
64488;BMP280;50864;45.050;39.014;2022-10-26T07:27:57;101537.50;;;16.50
64488;BMP280;50864;45.050;39.014;2022-10-26T07:30:24;101542.97;;;16.58
64488;BMP280;50864;45.050;39.014;2022-10-26T07:33:01;101538.75;;;16.66
64488;BMP280;50864;45.050;39.014;2022-10-26T07:35:27;101542.59;;;16.74
64488;BMP280;50864;45.050;39.014;2022-10-26T07:37:57;101539.78;;;16.79
64488;BMP280;50864;45.050;39.014;2022-10-26T07:40:24;101549.19;;;16.81
64488;BMP280;50864;45.050;39.014;2022-10-26T07:42:50;101544.28;;;16.83
64488;BMP280;50864;45.050;39.014;2022-10-26T07:45:18;101542.13;;;16.94
64488;BMP280;50864;45.050;39.014;2022-10-26T07:47:44;101542.34;;;17.06
64488;BMP280;50864;45.050;39.014;2022-10-26T07:50:11;101538.25;;;17.08
64488;BMP280;50864;45.050;39.014;2022-10-26T07:52:37;101544.59;;;17.12
64488;BMP280;50864;45.050;39.014;2022-10-26T07:55:07;101538.16;;;17.22
64488;BMP280;50864;45.050;39.014;2022-10-26T07:57:33;101540.53;;;17.24
64488;BMP280;50864;45.050;39.014;2022-10-26T08:00:00;101543.22;;;17.24
64488;BMP280;50864;45.050;39.014;2022-10-26T08:02:26;101550.41;;;17.20
64488;BMP280;50864;45.050;39.014;2022-10-26T08:04:52;101545.59;;;17.17
64488;BMP280;50864;45.050;39.014;2022-10-26T08:07:18;101547.19;;;17.18
64488;BMP280;50864;45.050;39.014;2022-10-26T08:09:44;101543.38;;;17.19
64488;BMP280;50864;45.050;39.014;2022-10-26T08:12:10;101544.66;;;17.21
64488;BMP280;50864;45.050;39.014;2022-10-26T08:14:38;101550.53;;;17.23
64488;BMP280;50864;45.050;39.014;2022-10-26T08:17:04;101548.81;;;17.27
64488;BMP280;50864;45.050;39.014;2022-10-26T08:19:30;101556.13;;;17.27
64488;BMP280;50864;45.050;39.014;2022-10-26T08:21:56;101556.44;;;17.25
64488;BMP280;50864;45.050;39.014;2022-10-26T08:24:22;101551.34;;;17.24
64488;BMP280;50864;45.050;39.014;2022-10-26T08:26:48;101542.75;;;17.22
64488;BMP280;50864;45.050;39.014;2022-10-26T08:29:14;101540.06;;;17.22
64488;BMP280;50864;45.050;39.014;2022-10-26T08:31:40;101531.13;;;17.21
64488;BMP280;50864;45.050;39.014;2022-10-26T08:34:06;101538.44;;;17.21
64488;BMP280;50864;45.050;39.014;2022-10-26T08:36:32;101538.50;;;17.29
64488;BMP280;50864;45.050;39.014;2022-10-26T08:38:58;101539.78;;;17.40
64488;BMP280;50864;45.050;39.014;2022-10-26T08:41:40;101531.38;;;17.42
64488;BMP280;50864;45.050;39.014;2022-10-26T08:44:30;101524.34;;;17.41
64488;BMP280;50864;45.050;39.014;2022-10-26T08:47:23;101523.75;;;17.44
64488;BMP280;50864;45.050;39.014;2022-10-26T08:50:24;101521.81;;;17.44
64488;BMP280;50864;45.050;39.014;2022-10-26T08:55:39;101518.66;;;17.51
64488;BMP280;50864;45.050;39.014;2022-10-26T08:58:14;101517.56;;;17.52
64488;BMP280;50864;45.050;39.014;2022-10-26T09:00:40;101520.94;;;17.49
64488;BMP280;50864;45.050;39.014;2022-10-26T09:03:13;101519.16;;;17.53
64488;BMP280;50864;45.050;39.014;2022-10-26T09:05:54;101519.03;;;17.58
64488;BMP280;50864;45.050;39.014;2022-10-26T09:08:46;101514.56;;;17.62
64488;BMP280;50864;45.050;39.014;2022-10-26T09:17:13;101490.72;;;17.73
64488;BMP280;50864;45.050;39.014;2022-10-26T09:22:36;101487.84;;;17.78
64488;BMP280;50864;45.050;39.014;2022-10-26T09:25:15;101478.94;;;17.77
64488;BMP280;50864;45.050;39.014;2022-10-26T09:27:46;101488.31;;;17.80
64488;BMP280;50864;45.050;39.014;2022-10-26T09:30:16;101474.78;;;17.80
64488;BMP280;50864;45.050;39.014;2022-10-26T09:32:47;101475.59;;;17.80
64488;BMP280;50864;45.050;39.014;2022-10-26T09:35:22;101468.25;;;17.89
64488;BMP280;50864;45.050;39.014;2022-10-26T09:37:55;101468.91;;;17.95
64488;BMP280;50864;45.050;39.014;2022-10-26T09:40:28;101468.44;;;18.01
64488;BMP280;50864;45.050;39.014;2022-10-26T09:46:03;101459.06;;;17.99
64488;BMP280;50864;45.050;39.014;2022-10-26T09:48:39;101452.53;;;18.00
64488;BMP280;50864;45.050;39.014;2022-10-26T09:51:06;101449.00;;;17.99
64488;BMP280;50864;45.050;39.014;2022-10-26T09:53:33;101448.22;;;17.99
64488;BMP280;50864;45.050;39.014;2022-10-26T09:56:08;101439.63;;;17.97
64488;BMP280;50864;45.050;39.014;2022-10-26T09:58:40;101435.78;;;17.98
64488;BMP280;50864;45.050;39.014;2022-10-26T10:01:20;101430.19;;;17.94
64488;BMP280;50864;45.050;39.014;2022-10-26T10:03:47;101423.19;;;17.93
64488;BMP280;50864;45.050;39.014;2022-10-26T10:06:20;101411.25;;;17.86
64488;BMP280;50864;45.050;39.014;2022-10-26T10:09:11;101420.81;;;17.83
64488;BMP280;50864;45.050;39.014;2022-10-26T10:11:44;101412.06;;;17.86
64488;BMP280;50864;45.050;39.014;2022-10-26T10:14:17;101411.09;;;17.82
64488;BMP280;50864;45.050;39.014;2022-10-26T10:17:08;101412.22;;;17.81
64488;BMP280;50864;45.050;39.014;2022-10-26T10:19:41;101407.28;;;17.83
64488;BMP280;50864;45.050;39.014;2022-10-26T10:22:24;101402.97;;;17.82
64488;BMP280;50864;45.050;39.014;2022-10-26T10:24:55;101403.78;;;17.83
64488;BMP280;50864;45.050;39.014;2022-10-26T10:27:21;101396.59;;;17.78
64488;BMP280;50864;45.050;39.014;2022-10-26T10:29:53;101393.56;;;17.80
64488;BMP280;50864;45.050;39.014;2022-10-26T10:32:28;101385.94;;;17.82
64488;BMP280;50864;45.050;39.014;2022-10-26T10:34:58;101383.06;;;17.87
64488;BMP280;50864;45.050;39.014;2022-10-26T10:37:40;101384.81;;;17.83
64488;BMP280;50864;45.050;39.014;2022-10-26T10:40:26;101377.50;;;17.83
64488;BMP280;50864;45.050;39.014;2022-10-26T10:43:05;101377.66;;;17.78
64488;BMP280;50864;45.050;39.014;2022-10-26T10:45:31;101363.31;;;17.78
64488;BMP280;50864;45.050;39.014;2022-10-26T10:53:43;101372.06;;;17.92
64488;BMP280;50864;45.050;39.014;2022-10-26T10:59:05;101376.19;;;17.89
64488;BMP280;50864;45.050;39.014;2022-10-26T11:01:39;101377.97;;;17.85
64488;BMP280;50864;45.050;39.014;2022-10-26T11:06:47;101366.81;;;17.95
64488;BMP280;50864;45.050;39.014;2022-10-26T11:09:18;101364.09;;;17.95
64488;BMP280;50864;45.050;39.014;2022-10-26T11:11:57;101372.37;;;17.99
64488;BMP280;50864;45.050;39.014;2022-10-26T11:14:40;101364.38;;;18.02
64488;BMP280;50864;45.050;39.014;2022-10-26T11:17:09;101370.94;;;18.10
64488;BMP280;50864;45.050;39.014;2022-10-26T11:19:54;101368.06;;;18.06
64488;BMP280;50864;45.050;39.014;2022-10-26T11:22:28;101362.31;;;18.08
64488;BMP280;50864;45.050;39.014;2022-10-26T11:25:04;101356.75;;;18.04
64488;BMP280;50864;45.050;39.014;2022-10-26T11:27:39;101344.66;;;18.02
64488;BMP280;50864;45.050;39.014;2022-10-26T11:30:18;101330.31;;;18.01
64488;BMP280;50864;45.050;39.014;2022-10-26T11:35:43;101326.34;;;17.99
64488;BMP280;50864;45.050;39.014;2022-10-26T11:41:46;101311.06;;;17.86
64488;BMP280;50864;45.050;39.014;2022-10-26T11:44:21;101322.06;;;17.81
64488;BMP280;50864;45.050;39.014;2022-10-26T11:46:54;101314.56;;;17.69
64488;BMP280;50864;45.050;39.014;2022-10-26T11:49:36;101321.44;;;17.67
64488;BMP280;50864;45.050;39.014;2022-10-26T11:55:03;101328.75;;;17.57
64488;BMP280;50864;45.050;39.014;2022-10-26T11:57:35;101333.03;;;17.50
64488;BMP280;50864;45.050;39.014;2022-10-26T12:00:07;101337.19;;;17.47
64488;BMP280;50864;45.050;39.014;2022-10-26T12:02:40;101350.56;;;17.44
64488;BMP280;50864;45.050;39.014;2022-10-26T12:07:47;101345.31;;;17.47
64488;BMP280;50864;45.050;39.014;2022-10-26T12:10:26;101341.81;;;17.47
64488;BMP280;50864;45.050;39.014;2022-10-26T12:23:05;101336.38;;;17.38
64488;BMP280;50864;45.050;39.014;2022-10-26T12:25:34;101311.72;;;17.31
64488;BMP280;50864;45.050;39.014;2022-10-26T12:28:00;101315.06;;;17.28
64488;BMP280;50864;45.050;39.014;2022-10-26T12:30:31;101312.66;;;17.27
64488;BMP280;50864;45.050;39.014;2022-10-26T12:32:59;101322.53;;;17.23
64488;BMP280;50864;45.050;39.014;2022-10-26T12:35:53;101326.19;;;17.18
64488;BMP280;50864;45.050;39.014;2022-10-26T12:41:11;101333.31;;;17.14
64488;BMP280;50864;45.050;39.014;2022-10-26T12:43:40;101343.94;;;17.10
64488;BMP280;50864;45.050;39.014;2022-10-26T12:48:50;101356.03;;;17.04
64488;BMP280;50864;45.050;39.014;2022-10-26T12:59:15;101386.91;;;17.03
64488;BMP280;50864;45.050;39.014;2022-10-26T13:07:22;101385.19;;;17.07
64488;BMP280;50864;45.050;39.014;2022-10-26T13:10:24;101387.38;;;17.05
64488;BMP280;50864;45.050;39.014;2022-10-26T13:12:55;101382.78;;;17.06
64488;BMP280;50864;45.050;39.014;2022-10-26T13:15:30;101400.59;;;17.07
64488;BMP280;50864;45.050;39.014;2022-10-26T13:18:05;101385.19;;;17.07
64488;BMP280;50864;45.050;39.014;2022-10-26T13:20:34;101384.50;;;17.10
64488;BMP280;50864;45.050;39.014;2022-10-26T13:23:02;101396.94;;;17.11
64488;BMP280;50864;45.050;39.014;2022-10-26T13:25:39;101388.03;;;17.11
64488;BMP280;50864;45.050;39.014;2022-10-26T13:28:29;101396.50;;;17.09
64488;BMP280;50864;45.050;39.014;2022-10-26T13:30:56;101397.28;;;17.10
64488;BMP280;50864;45.050;39.014;2022-10-26T13:33:26;101402.81;;;17.05
64488;BMP280;50864;45.050;39.014;2022-10-26T13:35:56;101399.31;;;17.04
64488;BMP280;50864;45.050;39.014;2022-10-26T13:38:26;101396.25;;;16.97
64488;BMP280;50864;45.050;39.014;2022-10-26T13:41:02;101392.09;;;16.91
64488;BMP280;50864;45.050;39.014;2022-10-26T13:43:31;101386.03;;;16.86
64488;BMP280;50864;45.050;39.014;2022-10-26T13:45:59;101396.19;;;16.80
64488;BMP280;50864;45.050;39.014;2022-10-26T13:48:40;101398.22;;;16.75
64488;BMP280;50864;45.050;39.014;2022-10-26T13:51:16;101394.88;;;16.69
64488;BMP280;50864;45.050;39.014;2022-10-26T13:54:23;101389.56;;;16.64
64488;BMP280;50864;45.050;39.014;2022-10-26T13:57:00;101402.78;;;16.57
64488;BMP280;50864;45.050;39.014;2022-10-26T13:59:30;101408.28;;;16.52
64488;BMP280;50864;45.050;39.014;2022-10-26T14:02:18;101395.38;;;16.49
64488;BMP280;50864;45.050;39.014;2022-10-26T14:04:46;101391.72;;;16.45
64488;BMP280;50864;45.050;39.014;2022-10-26T14:07:23;101389.13;;;16.40
64488;BMP280;50864;45.050;39.014;2022-10-26T14:09:55;101388.63;;;16.38
64488;BMP280;50864;45.050;39.014;2022-10-26T14:12:26;101385.44;;;16.36
64488;BMP280;50864;45.050;39.014;2022-10-26T14:15:04;101383.34;;;16.33
64488;BMP280;50864;45.050;39.014;2022-10-26T14:17:31;101388.88;;;16.28
64488;BMP280;50864;45.050;39.014;2022-10-26T14:19:58;101378.69;;;16.25
64488;BMP280;50864;45.050;39.014;2022-10-26T14:22:26;101374.69;;;16.22
64488;BMP280;50864;45.050;39.014;2022-10-26T14:24:54;101376.63;;;16.22
64488;BMP280;50864;45.050;39.014;2022-10-26T14:27:23;101371.22;;;16.22
64488;BMP280;50864;45.050;39.014;2022-10-26T14:29:51;101378.84;;;16.20
64488;BMP280;50864;45.050;39.014;2022-10-26T14:32:30;101372.94;;;16.18
64488;BMP280;50864;45.050;39.014;2022-10-26T14:34:58;101375.63;;;16.18
64488;BMP280;50864;45.050;39.014;2022-10-26T14:37:37;101378.16;;;16.14
64488;BMP280;50864;45.050;39.014;2022-10-26T14:40:05;101371.16;;;16.13
64488;BMP280;50864;45.050;39.014;2022-10-26T14:42:35;101377.16;;;16.10
64488;BMP280;50864;45.050;39.014;2022-10-26T14:45:03;101370.47;;;16.07
64488;BMP280;50864;45.050;39.014;2022-10-26T14:47:34;101369.50;;;16.03
64488;BMP280;50864;45.050;39.014;2022-10-26T14:50:01;101359.81;;;16.02
64488;BMP280;50864;45.050;39.014;2022-10-26T14:52:30;101351.22;;;16.00
64488;BMP280;50864;45.050;39.014;2022-10-26T14:54:59;101356.63;;;16.00
64488;BMP280;50864;45.050;39.014;2022-10-26T14:57:40;101352.78;;;16.01
64488;BMP280;50864;45.050;39.014;2022-10-26T15:00:17;101353.59;;;16.02
64488;BMP280;50864;45.050;39.014;2022-10-26T15:02:46;101348.53;;;16.00
64488;BMP280;50864;45.050;39.014;2022-10-26T15:05:28;101346.59;;;16.01
64488;BMP280;50864;45.050;39.014;2022-10-26T15:07:57;101338.81;;;15.99
64488;BMP280;50864;45.050;39.014;2022-10-26T15:15:53;101338.28;;;15.89
64488;BMP280;50864;45.050;39.014;2022-10-26T15:18:28;101331.09;;;15.84
64488;BMP280;50864;45.050;39.014;2022-10-26T15:20:56;101335.06;;;15.87
64488;BMP280;50864;45.050;39.014;2022-10-26T15:23:23;101316.16;;;15.87
64488;BMP280;50864;45.050;39.014;2022-10-26T15:25:53;101321.56;;;15.87
64488;BMP280;50864;45.050;39.014;2022-10-26T15:28:28;101326.06;;;15.91
64488;BMP280;50864;45.050;39.014;2022-10-26T15:33:41;101348.94;;;15.94
64488;BMP280;50864;45.050;39.014;2022-10-26T15:38:34;101349.88;;;15.89
64488;BMP280;50864;45.050;39.014;2022-10-26T15:41:00;101356.66;;;15.87
64488;BMP280;50864;45.050;39.014;2022-10-26T15:43:26;101359.97;;;15.84
64488;BMP280;50864;45.050;39.014;2022-10-26T15:45:52;101353.25;;;15.81
64488;BMP280;50864;45.050;39.014;2022-10-26T15:48:24;101350.09;;;15.79
64488;BMP280;50864;45.050;39.014;2022-10-26T15:50:52;101347.09;;;15.81
64488;BMP280;50864;45.050;39.014;2022-10-26T15:53:20;101338.53;;;15.79
64488;BMP280;50864;45.050;39.014;2022-10-26T15:55:51;101339.47;;;15.83
64488;BMP280;50864;45.050;39.014;2022-10-26T15:58:17;101344.47;;;15.89
64488;BMP280;50864;45.050;39.014;2022-10-26T16:00:44;101363.56;;;15.93